createdAt,value
2022-09-30T00:00:56.552Z,7.67
2022-09-30T00:03:24.172Z,8.37
2022-09-30T00:05:58.781Z,8.70
2022-09-30T00:08:25.884Z,8.60
2022-09-30T00:11:09.429Z,8.50
2022-09-30T00:13:38.473Z,7.80
2022-09-30T00:16:05.533Z,8.57
2022-09-30T00:18:32.703Z,7.37
2022-09-30T00:20:59.956Z,7.47
2022-09-30T00:23:26.664Z,8.03
2022-09-30T00:25:59.447Z,7.70
2022-09-30T00:28:27.117Z,7.87
2022-09-30T00:30:55.020Z,7.73
2022-09-30T00:33:21.679Z,7.77
2022-09-30T00:35:48.398Z,6.93
2022-09-30T00:38:15.111Z,7.47
2022-09-30T00:40:41.927Z,8.40
2022-09-30T00:43:15.166Z,8.37
2022-09-30T00:45:51.179Z,6.90
2022-09-30T00:48:22.749Z,8.00
2022-09-30T00:50:55.484Z,8.13
2022-09-30T00:53:35.025Z,7.40
2022-09-30T00:56:10.707Z,7.67
2022-09-30T00:58:48.847Z,7.50
2022-09-30T01:01:15.681Z,6.60
2022-09-30T01:03:50.198Z,7.70
2022-09-30T01:06:18.680Z,7.17
2022-09-30T01:08:46.559Z,7.10
2022-09-30T01:11:14.513Z,7.40
2022-09-30T01:13:43.626Z,6.43
2022-09-30T01:16:53.623Z,6.17
2022-09-30T01:19:40.234Z,7.70
2022-09-30T01:22:14.998Z,7.00
2022-09-30T01:25:22.045Z,7.50
2022-09-30T01:28:23.024Z,8.70
2022-09-30T01:31:08.852Z,6.97
2022-09-30T01:33:35.499Z,8.17
2022-09-30T01:36:06.645Z,7.90
2022-09-30T01:38:53.006Z,7.93
2022-09-30T01:41:47.477Z,6.93
2022-09-30T01:44:43.199Z,6.80
2022-09-30T01:47:26.502Z,6.50
2022-09-30T01:50:23.237Z,8.17
2022-09-30T01:53:05.085Z,8.00
2022-09-30T01:55:43.369Z,7.80
2022-09-30T01:58:34.613Z,8.30
2022-09-30T02:01:06.272Z,7.40
2022-09-30T02:03:42.319Z,7.43
2022-09-30T02:06:15.409Z,7.47
2022-09-30T02:08:51.899Z,7.70
2022-09-30T02:11:29.764Z,7.80
2022-09-30T02:14:02.254Z,7.73
2022-09-30T02:16:37.428Z,7.13
2022-09-30T02:19:23.047Z,8.67
2022-09-30T02:21:58.304Z,7.27
2022-09-30T02:24:27.454Z,6.90
2022-09-30T02:26:57.630Z,7.00
2022-09-30T02:29:30.931Z,6.97
2022-09-30T02:32:03.026Z,7.73
2022-09-30T02:34:34.733Z,6.30
2022-09-30T02:37:08.152Z,7.60
2022-09-30T02:39:40.986Z,6.97
2022-09-30T02:42:16.016Z,6.80
2022-09-30T02:44:42.728Z,6.83
2022-09-30T02:47:15.268Z,7.43
2022-09-30T02:49:55.249Z,7.20
2022-09-30T02:53:02.493Z,7.20
2022-09-30T02:55:41.532Z,7.53
2022-09-30T02:58:17.362Z,7.87
2022-09-30T03:00:44.385Z,7.70
2022-09-30T03:03:21.557Z,7.50
2022-09-30T03:05:50.573Z,8.17
2022-09-30T03:08:17.456Z,7.23
2022-09-30T03:10:45.129Z,7.60
2022-09-30T03:13:28.083Z,8.07
2022-09-30T03:16:21.750Z,7.57
2022-09-30T03:19:45.750Z,7.53
2022-09-30T03:22:20.887Z,7.10
2022-09-30T03:24:59.411Z,7.80
2022-09-30T03:27:52.906Z,6.27
2022-09-30T03:30:27.016Z,7.50
2022-09-30T03:33:20.543Z,7.03
2022-09-30T03:36:19.995Z,7.30
2022-09-30T03:38:58.374Z,7.30
2022-09-30T03:41:28.507Z,7.47
2022-09-30T03:44:10.892Z,7.53
2022-09-30T03:46:37.562Z,7.83
2022-09-30T03:49:13.312Z,7.37
2022-09-30T03:51:41.300Z,7.10
2022-09-30T03:54:13.079Z,7.30
2022-09-30T03:56:43.370Z,7.10
2022-09-30T03:59:22.960Z,6.20
2022-09-30T04:01:50.261Z,6.70
2022-09-30T04:04:17.088Z,7.27
2022-09-30T04:06:43.843Z,7.63
2022-09-30T04:09:10.867Z,6.77
2022-09-30T04:11:37.665Z,7.77
2022-09-30T04:14:05.219Z,6.90
2022-09-30T04:16:32.816Z,6.87
2022-09-30T04:18:59.641Z,6.53
2022-09-30T04:21:28.813Z,7.33
2022-09-30T04:23:56.367Z,6.50
2022-09-30T04:26:23.149Z,6.60
2022-09-30T04:28:50.410Z,7.10
2022-09-30T04:31:19.060Z,7.30
2022-09-30T04:33:45.903Z,6.37
2022-09-30T04:36:12.666Z,6.33
2022-09-30T04:38:39.397Z,7.00
2022-09-30T04:41:07.226Z,6.87
2022-09-30T04:43:34.423Z,7.20
2022-09-30T04:46:01.465Z,7.20
2022-09-30T04:48:30.285Z,7.30
2022-09-30T04:50:59.117Z,8.13
2022-09-30T04:53:25.956Z,7.10
2022-09-30T04:55:59.840Z,8.90
2022-09-30T04:58:27.049Z,8.50
2022-09-30T05:01:04.519Z,9.00
2022-09-30T05:03:31.627Z,9.37
2022-09-30T05:05:58.279Z,8.60
2022-09-30T05:08:25.124Z,8.50
2022-09-30T05:10:59.957Z,9.13
2022-09-30T05:13:31.925Z,8.63
2022-09-30T05:15:58.747Z,8.57
2022-09-30T05:18:28.387Z,8.87
2022-09-30T05:20:59.726Z,8.20
2022-09-30T05:23:30.321Z,9.33
2022-09-30T05:25:57.527Z,7.67
2022-09-30T05:28:25.867Z,9.13
2022-09-30T05:31:06.097Z,9.03
2022-09-30T05:33:33.702Z,9.50
2022-09-30T05:36:02.704Z,8.17
2022-09-30T05:38:30.100Z,9.07
2022-09-30T05:40:57.083Z,8.60
2022-09-30T05:43:24.008Z,8.47
2022-09-30T05:45:55.287Z,8.50
2022-09-30T05:48:22.737Z,9.00
2022-09-30T05:50:53.534Z,9.50
2022-09-30T05:53:20.415Z,9.80
2022-09-30T05:55:48.493Z,10.57
2022-09-30T05:58:15.684Z,10.10
2022-09-30T06:00:43.965Z,10.73
2022-09-30T06:03:10.904Z,10.67
2022-09-30T06:05:38.053Z,10.20
2022-09-30T06:08:07.098Z,9.70
2022-09-30T06:10:35.301Z,10.07
2022-09-30T06:13:05.251Z,10.90
2022-09-30T06:15:32.199Z,10.93
2022-09-30T06:17:59.273Z,11.00
2022-09-30T06:20:26.209Z,12.27
2022-09-30T06:22:53.176Z,12.27
2022-09-30T06:25:20.087Z,11.97
2022-09-30T06:27:47.483Z,14.63
2022-09-30T06:30:14.585Z,14.37
2022-09-30T06:32:42.513Z,13.50
2022-09-30T06:35:10.359Z,14.20
2022-09-30T06:37:37.936Z,15.80
2022-09-30T06:40:06.341Z,16.70
2022-09-30T06:42:33.436Z,17.40
2022-09-30T06:45:00.364Z,16.80
2022-09-30T06:47:27.255Z,17.13
2022-09-30T06:49:58.591Z,17.07
2022-09-30T06:52:26.960Z,18.60
2022-09-30T06:54:56.795Z,17.47
2022-09-30T06:57:26.686Z,15.37
2022-09-30T06:59:54.602Z,16.23
2022-09-30T07:02:22.187Z,15.10
2022-09-30T07:04:49.034Z,15.53
2022-09-30T07:07:15.833Z,14.77
2022-09-30T07:09:43.424Z,16.57
2022-09-30T07:12:10.324Z,15.10
2022-09-30T07:14:37.140Z,17.90
2022-09-30T07:17:05.589Z,18.47
2022-09-30T07:19:35.064Z,16.30
2022-09-30T07:22:22.105Z,15.20
2022-09-30T07:24:49.119Z,16.03
2022-09-30T07:27:15.979Z,16.10
2022-09-30T07:30:07.674Z,17.57
2022-09-30T07:32:30.982Z,18.53
2022-09-30T07:34:57.809Z,18.00
2022-09-30T07:37:26.183Z,18.60
2022-09-30T07:39:53.719Z,19.87
2022-09-30T07:42:22.772Z,21.00
2022-09-30T07:44:52.050Z,19.70
2022-09-30T07:47:19.876Z,17.80
2022-09-30T07:49:46.781Z,17.90
2022-09-30T07:52:14.118Z,17.73
2022-09-30T07:54:46.632Z,18.80
2022-09-30T07:57:16.987Z,17.10
2022-09-30T07:59:43.876Z,16.77
2022-09-30T08:02:18.997Z,17.20
2022-09-30T08:04:46.632Z,16.00
2022-09-30T08:07:16.177Z,16.30
2022-09-30T08:09:43.279Z,16.43
2022-09-30T08:12:10.091Z,17.27
2022-09-30T08:14:36.847Z,16.13
2022-09-30T08:17:03.663Z,17.40
2022-09-30T08:19:31.368Z,16.80
2022-09-30T08:21:58.523Z,17.70
2022-09-30T08:24:27.001Z,16.77
2022-09-30T08:26:54.877Z,16.60
2022-09-30T08:29:50.093Z,14.57
2022-09-30T08:32:08.900Z,14.60
2022-09-30T08:34:36.105Z,17.37
2022-09-30T08:37:08.729Z,16.30
2022-09-30T08:39:37.268Z,15.63
2022-09-30T08:42:35.505Z,15.20
2022-09-30T08:45:07.410Z,15.43
2022-09-30T08:47:39.895Z,16.30
2022-09-30T08:50:30.820Z,16.23
2022-09-30T08:53:11.603Z,16.63
2022-09-30T08:55:45.459Z,15.00
2022-09-30T08:58:28.645Z,15.67
2022-09-30T09:01:15.311Z,14.93
2022-09-30T09:03:42.446Z,17.10
2022-09-30T09:06:26.380Z,16.33
2022-09-30T09:09:20.320Z,16.37
2022-09-30T09:12:22.693Z,16.10
2022-09-30T09:15:04.655Z,15.70
2022-09-30T09:18:04.603Z,18.43
2022-09-30T09:20:41.943Z,16.00
2022-09-30T09:23:12.406Z,14.50
2022-09-30T09:25:39.533Z,15.40
2022-09-30T09:28:42.510Z,14.93
2022-09-30T09:31:17.219Z,15.57
2022-09-30T09:33:44.282Z,15.80
2022-09-30T09:36:13.710Z,14.60
2022-09-30T09:38:59.234Z,14.40
2022-09-30T09:41:51.453Z,13.60
2022-09-30T09:44:27.449Z,14.50
2022-09-30T09:47:05.637Z,14.20
2022-09-30T09:49:35.041Z,14.90
2022-09-30T09:52:13.889Z,14.23
2022-09-30T09:54:45.767Z,13.87
2022-09-30T09:57:17.503Z,12.73
2022-09-30T10:00:27.493Z,12.30
2022-09-30T10:03:04.076Z,13.20
2022-09-30T10:05:41.754Z,11.90
2022-09-30T10:08:16.830Z,12.27
2022-09-30T10:10:49.175Z,12.07
2022-09-30T10:13:18.035Z,12.03
2022-09-30T10:15:45.094Z,11.87
2022-09-30T10:18:23.631Z,10.57
2022-09-30T10:20:54.803Z,11.17
2022-09-30T10:23:27.812Z,10.80
2022-09-30T10:25:59.154Z,9.60
2022-09-30T10:28:31.865Z,10.13
2022-09-30T10:31:03.273Z,9.30
2022-09-30T10:33:56.688Z,8.83
2022-09-30T10:36:36.888Z,7.17
2022-09-30T10:39:07.883Z,6.10
2022-09-30T10:41:37.813Z,4.70
2022-09-30T10:44:13.191Z,5.23
2022-09-30T10:46:41.680Z,4.70
2022-09-30T10:49:45.769Z,5.30
2022-09-30T10:52:28.176Z,4.40
2022-09-30T10:54:57.177Z,5.53
2022-09-30T10:57:34.528Z,6.10
2022-09-30T11:00:01.347Z,5.80
2022-09-30T11:02:35.079Z,6.93
2022-09-30T11:05:10.152Z,6.50
2022-09-30T11:08:09.393Z,6.00
2022-09-30T11:11:01.471Z,5.50
2022-09-30T11:13:52.943Z,6.00
2022-09-30T11:16:38.482Z,5.90
2022-09-30T11:19:23.394Z,4.67
2022-09-30T11:21:53.167Z,5.00
2022-09-30T11:24:39.778Z,7.00
2022-09-30T11:27:22.340Z,6.07
2022-09-30T11:30:10.399Z,4.97
2022-09-30T11:33:00.661Z,4.90
2022-09-30T11:36:11.771Z,3.70
2022-09-30T11:38:56.330Z,4.70
2022-09-30T11:41:31.508Z,3.70
2022-09-30T11:44:27.736Z,4.03
2022-09-30T11:47:04.829Z,4.43
2022-09-30T11:50:06.833Z,4.90
2022-09-30T11:53:10.509Z,4.30
2022-09-30T11:56:05.045Z,4.30
2022-09-30T11:58:42.972Z,3.80
2022-09-30T12:01:44.165Z,3.90
2022-09-30T12:04:22.510Z,3.40
2022-09-30T12:07:05.245Z,3.97
2022-09-30T12:09:48.166Z,4.50
2022-09-30T12:12:18.128Z,3.73
2022-09-30T12:14:53.588Z,3.70
2022-09-30T12:17:46.485Z,3.93
2022-09-30T12:20:36.416Z,3.50
2022-09-30T12:23:28.700Z,2.23
2022-09-30T12:25:58.069Z,3.07
2022-09-30T12:28:48.168Z,2.10
2022-09-30T12:31:56.473Z,2.30
2022-09-30T12:34:41.568Z,1.97
2022-09-30T12:37:20.673Z,2.30
2022-09-30T12:39:47.424Z,2.17
2022-09-30T12:42:19.873Z,1.77
2022-09-30T12:45:16.832Z,2.90
2022-09-30T12:47:56.669Z,3.00
2022-09-30T12:50:29.257Z,2.60
2022-09-30T12:52:57.630Z,2.77
2022-09-30T12:55:28.055Z,2.87
2022-09-30T12:57:56.598Z,2.63
2022-09-30T13:00:26.519Z,3.30
2022-09-30T13:03:07.865Z,2.30
2022-09-30T13:05:34.599Z,2.43
2022-09-30T13:08:04.463Z,2.10
2022-09-30T13:10:38.554Z,2.80
2022-09-30T13:13:33.901Z,2.70
2022-09-30T13:16:06.654Z,2.07
2022-09-30T13:18:33.592Z,2.00
2022-09-30T13:21:06.759Z,2.20
2022-09-30T13:23:55.694Z,2.60
2022-09-30T13:26:33.096Z,1.53
2022-09-30T13:29:00.157Z,1.90
2022-09-30T13:31:50.192Z,2.47
2022-09-30T13:34:33.276Z,1.77
2022-09-30T13:37:05.342Z,1.93
2022-09-30T13:39:45.737Z,2.07
2022-09-30T13:42:31.689Z,2.10
2022-09-30T13:45:16.997Z,2.30
2022-09-30T13:47:45.621Z,1.83
2022-09-30T13:50:19.839Z,2.10
2022-09-30T13:52:55.000Z,1.90
2022-09-30T13:55:27.046Z,1.83
2022-09-30T13:58:36.508Z,1.83
2022-09-30T14:01:27.845Z,2.20
2022-09-30T14:04:32.198Z,1.77
2022-09-30T14:07:01.965Z,1.70
2022-09-30T14:09:58.139Z,1.80
2022-09-30T14:12:56.569Z,1.30
2022-09-30T14:15:42.529Z,1.73
2022-09-30T14:18:24.095Z,1.93
2022-09-30T14:20:51.085Z,2.10
2022-09-30T14:23:20.204Z,1.90
2022-09-30T14:26:17.644Z,1.60
2022-09-30T14:28:53.859Z,2.20
2022-09-30T14:31:20.700Z,2.20
2022-09-30T14:33:50.062Z,2.00
2022-09-30T14:36:21.908Z,2.03
2022-09-30T14:38:59.369Z,1.93
2022-09-30T14:41:28.209Z,2.13
2022-09-30T14:43:59.376Z,2.57
2022-09-30T14:46:43.371Z,2.20
2022-09-30T14:49:15.022Z,2.10
2022-09-30T14:51:44.969Z,2.30
2022-09-30T14:54:20.989Z,2.23
2022-09-30T14:56:49.582Z,2.23
2022-09-30T14:59:22.362Z,2.13
2022-09-30T15:01:55.380Z,2.40
2022-09-30T15:04:31.879Z,2.20
2022-09-30T15:07:03.323Z,2.60
2022-09-30T15:09:43.517Z,2.07
2022-09-30T15:12:17.785Z,2.30
2022-09-30T15:14:50.053Z,2.93
2022-09-30T15:17:21.721Z,2.40
2022-09-30T15:19:50.271Z,2.33
2022-09-30T15:22:18.159Z,2.60
2022-09-30T15:24:46.723Z,2.30
2022-09-30T15:27:23.419Z,2.50
2022-09-30T15:30:02.351Z,2.40
2022-09-30T15:32:33.836Z,2.30
2022-09-30T15:35:21.757Z,2.23
2022-09-30T15:37:49.124Z,1.80
2022-09-30T15:40:37.678Z,2.27
2022-09-30T15:43:15.543Z,2.03
2022-09-30T15:45:48.526Z,2.43
2022-09-30T15:48:27.311Z,2.10
2022-09-30T15:51:01.331Z,2.37
2022-09-30T15:53:46.269Z,2.03
2022-09-30T15:56:20.264Z,2.00
2022-09-30T15:59:04.467Z,2.00
2022-09-30T16:01:45.844Z,1.83
2022-09-30T16:04:24.652Z,1.87
2022-09-30T16:06:52.688Z,1.73
2022-09-30T16:09:33.539Z,2.20
2022-09-30T16:12:18.193Z,1.97
2022-09-30T16:14:48.867Z,1.97
2022-09-30T16:17:21.557Z,2.00
2022-09-30T16:20:05.718Z,2.23
2022-09-30T16:22:41.284Z,1.93
2022-09-30T16:25:11.314Z,2.20
2022-09-30T16:27:38.471Z,2.00
2022-09-30T16:30:06.629Z,2.17
2022-09-30T16:32:38.246Z,2.13
2022-09-30T16:35:06.366Z,2.17
2022-09-30T16:37:33.182Z,2.50
2022-09-30T16:40:10.398Z,2.83
2022-09-30T16:42:37.107Z,2.50
2022-09-30T16:45:04.455Z,2.23
2022-09-30T16:47:31.173Z,2.23
2022-09-30T16:49:58.811Z,2.50
2022-09-30T16:52:26.114Z,2.20
2022-09-30T16:54:52.814Z,1.80
2022-09-30T16:57:19.467Z,1.93
2022-09-30T16:59:46.150Z,2.40
2022-09-30T17:02:14.744Z,2.30
2022-09-30T17:04:41.944Z,2.23
2022-09-30T17:07:11.939Z,2.70
2022-09-30T17:09:39.562Z,3.20
2022-09-30T17:12:06.330Z,3.17
2022-09-30T17:14:33.278Z,3.00
2022-09-30T17:16:59.990Z,3.00
2022-09-30T17:19:30.082Z,3.20
2022-09-30T17:21:56.753Z,3.60
2022-09-30T17:24:23.475Z,4.30
2022-09-30T17:26:50.819Z,4.20
2022-09-30T17:29:31.802Z,4.17
2022-09-30T17:31:59.613Z,3.93
2022-09-30T17:34:27.968Z,4.30
2022-09-30T17:36:56.224Z,4.47
2022-09-30T17:39:25.347Z,4.90
2022-09-30T17:42:10.619Z,4.50
2022-09-30T17:44:39.079Z,6.00
2022-09-30T17:47:06.160Z,5.17
2022-09-30T17:49:36.942Z,5.80
2022-09-30T17:52:04.242Z,5.57
2022-09-30T17:54:31.679Z,5.50
2022-09-30T17:56:58.536Z,5.63
2022-09-30T17:59:26.990Z,6.03
2022-09-30T18:01:56.321Z,5.90
2022-09-30T18:04:25.934Z,6.83
2022-09-30T18:06:54.303Z,7.20
2022-09-30T18:09:21.735Z,8.20
2022-09-30T18:11:49.174Z,8.00
2022-09-30T18:14:16.214Z,7.97
2022-09-30T18:16:43.225Z,7.43
2022-09-30T18:19:10.068Z,7.20
2022-09-30T18:21:37.832Z,6.70
2022-09-30T18:24:07.590Z,6.63
2022-09-30T18:26:36.069Z,7.83
2022-09-30T18:29:04.224Z,6.93
2022-09-30T18:31:38.850Z,6.80
2022-09-30T18:34:06.487Z,7.00
2022-09-30T18:36:33.258Z,8.20
2022-09-30T18:39:02.619Z,7.60
2022-09-30T18:41:31.825Z,6.87
2022-09-30T18:44:02.962Z,7.00
2022-09-30T18:46:30.779Z,7.20
2022-09-30T18:48:57.851Z,7.17
2022-09-30T18:51:25.262Z,7.23
2022-09-30T18:53:56.005Z,7.23
2022-09-30T18:56:23.640Z,7.07
2022-09-30T18:58:51.590Z,8.30
2022-09-30T19:01:19.500Z,7.10
2022-09-30T19:03:46.361Z,8.00
2022-09-30T19:06:13.314Z,7.73
2022-09-30T19:08:40.096Z,6.90
2022-09-30T19:11:13.052Z,8.30
2022-09-30T19:13:44.050Z,8.00
2022-09-30T19:16:11.689Z,7.80
2022-09-30T19:18:40.755Z,8.20
2022-09-30T19:21:12.882Z,8.60
2022-09-30T19:23:40.348Z,8.13
2022-09-30T19:26:08.222Z,7.67
2022-09-30T19:28:38.351Z,7.40
2022-09-30T19:31:12.411Z,8.17
2022-09-30T19:33:50.468Z,8.20
2022-09-30T19:36:21.289Z,8.90
2022-09-30T19:38:48.086Z,8.67
2022-09-30T19:41:16.560Z,9.83
2022-09-30T19:43:46.740Z,9.97
2022-09-30T19:46:14.591Z,11.70
2022-09-30T19:48:42.086Z,9.53
2022-09-30T19:51:13.962Z,8.63
2022-09-30T19:53:44.902Z,9.97
2022-09-30T19:56:16.533Z,9.10
2022-09-30T19:58:48.905Z,8.50
2022-09-30T20:01:18.193Z,9.77
2022-09-30T20:03:45.265Z,9.67
2022-09-30T20:06:14.797Z,9.10
2022-09-30T20:08:44.437Z,10.13
2022-09-30T20:11:15.260Z,10.80
2022-09-30T20:13:43.036Z,10.40
2022-09-30T20:16:13.125Z,11.60
2022-09-30T20:18:41.129Z,10.30
2022-09-30T20:21:10.217Z,10.57
2022-09-30T20:23:39.999Z,9.27
2022-09-30T20:26:13.229Z,8.57
2022-09-30T20:28:40.199Z,7.87
2022-09-30T20:31:09.377Z,8.00
2022-09-30T20:33:37.099Z,8.03
2022-09-30T20:36:04.761Z,8.63
2022-09-30T20:38:31.823Z,8.10
2022-09-30T20:41:00.173Z,7.70
2022-09-30T20:43:30.221Z,8.67
2022-09-30T20:46:01.817Z,8.27
2022-09-30T20:48:33.701Z,9.27
2022-09-30T20:51:04.896Z,7.83
2022-09-30T20:53:31.813Z,7.70
2022-09-30T20:56:01.524Z,8.63
2022-09-30T20:58:28.348Z,8.97
2022-09-30T21:01:02.062Z,8.47
2022-09-30T21:03:31.993Z,9.00
2022-09-30T21:05:59.418Z,8.43
2022-09-30T21:08:26.232Z,8.13
2022-09-30T21:10:53.006Z,7.90
2022-09-30T21:13:19.889Z,9.13
2022-09-30T21:15:46.783Z,8.37
2022-09-30T21:18:13.566Z,8.90
2022-09-30T21:20:40.374Z,8.73
2022-09-30T21:23:07.086Z,8.93
2022-09-30T21:25:33.819Z,9.77
2022-09-30T21:28:00.836Z,9.00
2022-09-30T21:30:28.222Z,8.83
2022-09-30T21:32:55.000Z,8.33
2022-09-30T21:35:21.659Z,9.10
2022-09-30T21:37:49.073Z,9.43
2022-09-30T21:40:16.065Z,10.77
2022-09-30T21:42:42.783Z,10.20
2022-09-30T21:45:09.943Z,9.60
2022-09-30T21:47:36.673Z,9.33
2022-09-30T21:50:04.300Z,9.20
2022-09-30T21:52:32.971Z,9.70
2022-09-30T21:54:59.826Z,10.37
2022-09-30T21:57:26.598Z,10.30
2022-09-30T21:59:53.304Z,10.00
2022-09-30T22:02:20.031Z,9.40
2022-09-30T22:04:46.882Z,9.23
2022-09-30T22:07:15.394Z,10.50
2022-09-30T22:09:43.030Z,10.70
2022-09-30T22:12:09.799Z,9.57
2022-09-30T22:14:37.569Z,9.93
2022-09-30T22:17:08.302Z,9.37
2022-09-30T22:19:34.992Z,9.80
2022-09-30T22:22:01.800Z,9.70
2022-09-30T22:24:28.482Z,10.63
2022-09-30T22:26:57.288Z,9.80
2022-09-30T22:29:24.009Z,9.40
2022-09-30T22:31:50.786Z,10.60
2022-09-30T22:34:36.401Z,9.47
2022-09-30T22:37:21.758Z,9.33
2022-09-30T22:39:48.401Z,9.03
2022-09-30T22:42:15.233Z,9.87
2022-09-30T22:44:41.969Z,10.30
2022-09-30T22:47:09.856Z,8.23
2022-09-30T22:49:36.652Z,9.43
2022-09-30T22:52:03.882Z,8.77
2022-09-30T22:54:30.964Z,8.60
2022-09-30T22:56:59.397Z,8.63
2022-09-30T22:59:26.955Z,7.97
2022-09-30T23:01:54.165Z,7.97
2022-09-30T23:04:22.132Z,8.57
2022-09-30T23:06:50.218Z,8.33
2022-09-30T23:09:18.860Z,9.50
2022-09-30T23:11:46.121Z,8.13
2022-09-30T23:14:13.325Z,9.77
2022-09-30T23:16:40.766Z,9.70
2022-09-30T23:19:07.681Z,9.20
2022-09-30T23:21:34.742Z,9.43
2022-09-30T23:24:02.071Z,9.00
2022-09-30T23:26:29.737Z,9.23
2022-09-30T23:28:58.153Z,9.33
2022-09-30T23:31:25.741Z,9.60
2022-09-30T23:33:55.403Z,9.33
2022-09-30T23:36:26.953Z,8.70
2022-09-30T23:38:53.939Z,8.60
2022-09-30T23:41:20.766Z,8.10
2022-09-30T23:43:48.382Z,9.67
2022-09-30T23:46:16.994Z,8.00
2022-09-30T23:48:45.827Z,8.50
2022-09-30T23:51:14.084Z,8.53
2022-09-30T23:53:42.349Z,8.23
2022-09-30T23:56:17.286Z,8.00
2022-09-30T23:58:45.052Z,7.47
